createdAt,value
2024-05-09T00:04:58.750Z,968.47
2024-05-09T00:19:58.588Z,968.41
2024-05-09T00:34:58.340Z,968.29
2024-05-09T00:49:58.329Z,968.21
2024-05-09T01:04:57.996Z,968.12
2024-05-09T01:19:57.730Z,968.14
2024-05-09T01:34:57.604Z,968.18
2024-05-09T01:49:57.377Z,968.21
2024-05-09T02:04:57.235Z,968.22
2024-05-09T02:19:57.170Z,968.23
2024-05-09T02:34:56.804Z,968.22
2024-05-09T02:49:56.577Z,968.20
2024-05-09T03:04:56.534Z,968.08
2024-05-09T03:19:56.202Z,968.19
2024-05-09T03:34:56.236Z,968.16
2024-05-09T03:49:55.832Z,968.15
2024-05-09T04:04:55.720Z,968.19
2024-05-09T04:19:55.555Z,968.29
2024-05-09T04:34:55.306Z,968.42
2024-05-09T04:49:55.051Z,968.51
2024-05-09T05:04:55.180Z,968.60
2024-05-09T05:19:54.919Z,968.59
2024-05-09T05:34:54.508Z,968.66
2024-05-09T05:49:54.353Z,968.77
2024-05-09T06:04:54.202Z,968.78
2024-05-09T06:19:54.133Z,968.72
2024-05-09T06:34:53.945Z,968.67
2024-05-09T06:49:53.627Z,968.66
2024-05-09T07:04:53.542Z,968.81
2024-05-09T07:19:53.221Z,968.78
2024-05-09T07:34:52.966Z,968.72
2024-05-09T07:51:32.845Z,968.72
2024-05-09T08:04:53.730Z,968.68
2024-05-09T08:19:52.492Z,968.70
2024-05-09T08:34:52.307Z,968.64
2024-05-09T08:49:52.081Z,968.54
2024-05-09T09:04:52.098Z,968.46
2024-05-09T09:20:09.015Z,968.51
2024-05-09T09:34:52.541Z,968.51
2024-05-09T09:49:51.352Z,968.55
2024-05-09T10:04:51.319Z,968.50
2024-05-09T10:19:51.236Z,968.43
2024-05-09T10:34:50.730Z,968.42
2024-05-09T10:49:50.622Z,968.37
2024-05-09T11:04:50.441Z,968.26
2024-05-09T11:19:50.166Z,968.28
2024-05-09T11:34:49.954Z,968.32
2024-05-09T11:49:50.147Z,968.21
2024-05-09T12:04:49.680Z,968.14
2024-05-09T12:19:49.484Z,968.02
2024-05-09T12:34:49.178Z,967.86
2024-05-09T12:49:49.069Z,967.74
